Time;durP1;ratioP1;P1;durP2;ratioP2;P2;SDS_P1;SDS_P2;PMS_P1;PMS_P2;Temp;Humidity;BMP_temperature;BMP_pressure;BME280_temperature;BME280_humidity;BME280_pressure;Samples;Min_cycle;Max_cycle;Signal;HPM_P1;HPM_P2
2022/12/22 03:26:20;;;;;;;0.60;0.60;;;;;;;4.63;100.00;98878.13;5064853;28;20048;-68
2022/12/22 03:28:45;;;;;;;0.50;0.50;;;;;;;4.63;100.00;98875.56;5064791;28;20037;-69
2022/12/22 03:31:11;;;;;;;0.70;0.70;;;;;;;4.66;100.00;98874.69;5064981;28;20020;-69
2022/12/22 03:33:36;;;;;;;0.50;0.50;;;;;;;4.64;100.00;98868.69;5064827;28;20088;-69
2022/12/22 03:36:03;;;;;;;0.40;0.40;;;;;;;4.64;100.00;98861.84;5064680;28;20503;-70
2022/12/22 03:38:28;;;;;;;0.60;0.60;;;;;;;4.64;100.00;98864.41;5064738;28;20020;-69
2022/12/22 03:40:54;;;;;;;0.80;0.80;;;;;;;4.64;100.00;98868.69;5064796;28;20029;-70
2022/12/22 03:49:08;;;;;;;0.50;0.50;;;;;;;4.68;100.00;98854.97;5064479;28;20040;-70
2022/12/22 03:51:35;;;;;;;2.58;2.47;;;;;;;4.69;100.00;98861.78;5064623;28;20040;-69
2022/12/22 03:54:01;;;;;;;0.50;0.50;;;;;;;4.71;100.00;98849.78;5064661;28;20024;-70
2022/12/22 03:56:26;;;;;;;0.50;0.50;;;;;;;4.65;100.00;98855.00;5064622;28;20027;-70
2022/12/22 03:58:52;;;;;;;0.50;0.50;;;;;;;4.60;100.00;98862.72;5064717;28;20025;-69
2022/12/22 04:01:17;;;;;;;0.50;0.50;;;;;;;4.54;100.00;98860.19;5064571;28;20063;-69
2022/12/22 04:03:42;;;;;;;0.40;0.40;;;;;;;4.49;100.00;98861.97;5064237;28;20086;-70
2022/12/22 04:06:08;;;;;;;2.70;2.60;;;;;;;4.47;100.00;98860.25;5064569;28;20024;-69
2022/12/22 04:08:33;;;;;;;0.60;0.60;;;;;;;4.44;100.00;98859.44;5064256;28;20039;-70
2022/12/22 04:13:43;;;;;;;0.50;0.50;;;;;;;4.43;100.00;98868.88;5064508;28;20156;-70
2022/12/22 04:16:08;;;;;;;0.50;0.50;;;;;;;4.43;100.00;98861.16;5064471;28;20089;-70
2022/12/22 04:18:33;;;;;;;0.50;0.50;;;;;;;4.43;100.00;98850.88;5064070;28;20096;-70
2022/12/22 04:20:59;;;;;;;0.50;0.50;;;;;;;4.43;100.00;98842.31;5064390;28;20044;-71
2022/12/22 04:23:24;;;;;;;0.50;0.50;;;;;;;4.41;100.00;98823.50;5064257;28;20060;-72
2022/12/22 04:25:50;;;;;;;0.50;0.50;;;;;;;4.45;100.00;98830.31;5067226;28;20104;-71
2022/12/22 04:28:15;;;;;;;0.50;0.50;;;;;;;4.42;100.00;98815.78;5067664;28;20043;-71
2022/12/22 04:30:40;;;;;;;0.70;0.70;;;;;;;4.46;100.00;98827.72;5067826;28;20087;-73
2022/12/22 04:33:06;;;;;;;0.50;0.50;;;;;;;4.49;100.00;98823.44;5067578;28;20038;-72
2022/12/22 04:35:31;;;;;;;0.50;0.50;;;;;;;4.54;100.00;98826.78;5067876;28;20025;-72
2022/12/22 04:37:56;;;;;;;0.50;0.50;;;;;;;4.57;100.00;98827.63;5067538;28;20088;-72
2022/12/22 04:40:22;;;;;;;0.50;0.50;;;;;;;4.62;100.00;98824.19;5067518;28;20080;-72
2022/12/22 04:42:47;;;;;;;0.50;0.50;;;;;;;4.65;100.00;98821.56;5067448;28;20029;-71
2022/12/22 04:45:13;;;;;;;0.47;0.47;;;;;;;4.74;100.00;98830.91;5066048;28;20021;-71
2022/12/22 04:47:38;;;;;;;0.40;0.40;;;;;;;4.61;100.00;98810.47;5067001;28;20055;-71
2022/12/22 04:50:04;;;;;;;0.50;0.50;;;;;;;4.73;100.00;98824.91;5067413;28;20025;-73
2022/12/22 04:52:29;;;;;;;0.50;0.50;;;;;;;4.74;100.00;98829.19;5067334;28;20021;-72
2022/12/22 04:54:55;;;;;;;1.77;1.67;;;;;;;4.75;100.00;98818.03;5067190;28;20021;-71
2022/12/22 04:57:20;;;;;;;0.50;0.50;;;;;;;4.64;100.00;98794.16;5065997;28;20051;-71
2022/12/22 04:59:46;;;;;;;0.50;0.50;;;;;;;4.77;100.00;98816.31;5067238;28;20021;-72
2022/12/22 05:02:12;;;;;;;0.40;0.40;;;;;;;4.76;100.00;98806.03;5066918;28;20031;-73
2022/12/22 05:04:37;;;;;;;0.50;0.50;;;;;;;4.78;100.00;98812.00;5066936;28;20027;-72
2022/12/22 05:07:04;;;;;;;0.50;0.50;;;;;;;4.79;100.00;98803.44;5066918;28;20037;-72
2022/12/22 05:09:29;;;;;;;0.50;0.50;;;;;;;4.81;100.00;98811.97;5067006;28;20029;-72
2022/12/22 05:11:55;;;;;;;0.50;0.50;;;;;;;4.81;100.00;98809.38;5066812;28;20088;-72
2022/12/22 05:14:21;;;;;;;0.45;0.45;;;;;;;4.81;100.00;98801.66;5066960;28;20029;-72
2022/12/22 05:16:46;;;;;;;0.45;0.45;;;;;;;4.84;100.00;98796.50;5066896;28;20021;-73
2022/12/22 05:19:11;;;;;;;0.50;0.50;;;;;;;4.79;100.00;98785.44;5066870;28;20021;-73
2022/12/22 05:21:37;;;;;;;0.50;0.50;;;;;;;4.82;100.00;98793.13;5065545;28;20021;-72
2022/12/22 05:24:02;;;;;;;0.50;0.50;;;;;;;4.86;100.00;98783.66;5065301;28;20047;-72
2022/12/22 05:26:28;;;;;;;0.50;0.50;;;;;;;4.82;100.00;98787.97;5066543;28;20020;-71
2022/12/22 05:28:53;;;;;;;12.25;3.42;;;;;;;4.83;100.00;98781.94;5066566;28;20031;-71
2022/12/22 05:31:22;;;;;;;0.45;0.45;;;;;;;4.87;100.00;98778.50;5066676;28;20049;-71
2022/12/22 05:33:48;;;;;;;0.50;0.50;;;;;;;4.83;100.00;98766.50;5066282;28;20043;-70
2022/12/22 05:36:14;;;;;;;0.40;0.40;;;;;;;4.82;100.00;98778.50;5064628;28;20024;-72
2022/12/22 05:38:39;;;;;;;0.50;0.50;;;;;;;4.80;100.00;98779.41;5066214;28;20027;-72
2022/12/22 05:41:06;;;;;;;0.50;0.50;;;;;;;4.73;100.00;98768.34;5066257;28;20106;-72
2022/12/22 05:43:32;;;;;;;0.50;0.50;;;;;;;4.77;100.00;98769.16;5066317;28;20033;-73
2022/12/22 05:46:07;;;;;;;1.27;1.25;;;;;;;4.73;100.00;98765.75;5066553;28;20021;-71
2022/12/22 05:48:33;;;;;;;0.57;0.57;;;;;;;4.76;100.00;98770.03;5065844;28;20049;-72
2022/12/22 05:50:58;;;;;;;1.35;1.35;;;;;;;4.74;100.00;98775.19;5066395;28;20081;-71
2022/12/22 05:53:24;;;;;;;0.50;0.50;;;;;;;4.74;100.00;98774.34;5066376;28;20024;-72
2022/12/22 05:55:49;;;;;;;0.50;0.50;;;;;;;4.74;100.00;98759.78;5098649;28;20024;-71
2022/12/22 05:58:14;;;;;;;1.30;1.23;;;;;;;4.78;100.00;98760.56;5066214;28;20025;-73
2022/12/22 06:00:40;;;;;;;0.70;0.70;;;;;;;4.77;100.00;98754.59;5066326;28;20107;-72
2022/12/22 06:03:05;;;;;;;0.50;0.50;;;;;;;4.65;100.00;98749.59;5065570;28;20025;-72
2022/12/22 06:05:31;;;;;;;0.50;0.50;;;;;;;4.73;100.00;98765.75;5066083;28;20028;-73
2022/12/22 06:07:56;;;;;;;0.70;0.70;;;;;;;4.75;100.00;98763.16;5064496;28;20025;-72
2022/12/22 06:10:22;;;;;;;0.50;0.50;;;;;;;4.77;100.00;98772.59;5065814;28;20032;-72
2022/12/22 06:12:47;;;;;;;0.50;0.50;;;;;;;4.76;100.00;98770.03;5065634;28;20025;-71
2022/12/22 06:15:13;;;;;;;0.50;0.50;;;;;;;4.73;100.00;98759.78;5065825;28;20031;-72
2022/12/22 06:17:39;;;;;;;2.35;2.25;;;;;;;4.77;100.00;98769.16;5065492;28;20033;-70
2022/12/22 06:20:05;;;;;;;0.45;0.45;;;;;;;4.77;100.00;98774.31;5065755;28;20106;-72
2022/12/22 06:22:32;;;;;;;0.50;0.50;;;;;;;4.77;100.00;98762.31;5065529;28;20029;-72
2022/12/22 06:24:58;;;;;;;0.50;0.50;;;;;;;4.74;100.00;98767.50;5065497;28;20358;-73
2022/12/22 06:27:23;;;;;;;0.50;0.50;;;;;;;4.75;100.00;98779.47;5065178;28;20468;-73
2022/12/22 06:29:48;;;;;;;0.50;0.50;;;;;;;4.73;100.00;98764.94;5065029;28;20025;-73
2022/12/22 06:32:14;;;;;;;0.50;0.50;;;;;;;4.75;100.00;98776.91;5065116;28;20043;-74
2022/12/22 06:34:39;;;;;;;0.47;0.47;;;;;;;4.74;100.00;98776.91;5065175;28;20031;-73
2022/12/22 06:37:05;;;;;;;0.50;0.50;;;;;;;4.76;100.00;98759.75;5065569;28;20021;-73
2022/12/22 06:39:31;;;;;;;0.47;0.47;;;;;;;4.76;100.00;98770.03;5065054;28;20377;-72
2022/12/22 06:44:40;;;;;;;0.50;0.50;;;;;;;4.74;100.00;98774.34;5065550;28;20084;-74
2022/12/22 06:47:05;;;;;;;0.50;0.50;;;;;;;4.76;100.00;98758.00;5064485;28;20488;-73
2022/12/22 06:49:31;;;;;;;0.50;0.50;;;;;;;4.81;100.00;98766.53;5063717;28;20025;-73
2022/12/22 06:51:56;;;;;;;0.50;0.50;;;;;;;4.75;100.00;98763.16;5064893;28;20028;-72
2022/12/22 06:54:21;;;;;;;0.50;0.50;;;;;;;4.72;100.00;98761.50;5065227;28;20063;-74
2022/12/22 06:56:47;;;;;;;0.60;0.60;;;;;;;4.77;100.00;98764.88;5065089;28;20029;-74
2022/12/22 06:59:13;;;;;;;0.50;0.50;;;;;;;4.74;100.00;98753.78;5063827;28;20140;-73
2022/12/22 07:01:38;;;;;;;0.50;0.50;;;;;;;4.78;100.00;98766.56;5063698;28;20027;-74
2022/12/22 07:04:04;;;;;;;0.50;0.50;;;;;;;4.76;100.00;98752.03;5065044;28;20028;-73
2022/12/22 07:06:29;;;;;;;0.50;0.50;;;;;;;4.77;100.00;98769.16;5064981;28;20025;-73
2022/12/22 07:08:55;;;;;;;0.98;0.98;;;;;;;4.66;100.00;98766.72;5064818;28;20161;-74
2022/12/22 07:11:20;;;;;;;0.50;0.50;;;;;;;4.71;100.00;98760.63;5065055;28;20029;-73
2022/12/22 07:13:47;;;;;;;0.50;0.50;;;;;;;4.71;100.00;98758.06;5064927;28;20032;-73
2022/12/22 07:16:13;;;;;;;1.40;1.10;;;;;;;4.73;100.00;98764.94;5064873;28;20384;-73
2022/12/22 07:18:40;;;;;;;0.52;0.52;;;;;;;4.69;100.00;98762.41;5064710;28;20017;-73
2022/12/22 07:21:08;;;;;;;0.75;0.75;;;;;;;4.59;100.00;98758.22;5065215;28;20021;-73
2022/12/22 07:23:34;;;;;;;0.50;0.50;;;;;;;4.65;100.00;98750.44;5065037;28;20025;-72
2022/12/22 07:26:00;;;;;;;0.50;0.50;;;;;;;4.69;100.00;98751.25;5065036;28;20021;-72
2022/12/22 07:28:26;;;;;;;0.50;0.50;;;;;;;4.70;100.00;98758.94;5064795;28;20021;-73
2022/12/22 07:30:53;;;;;;;0.50;0.50;;;;;;;4.74;100.00;98753.78;5064876;28;20323;-73
2022/12/22 07:33:19;;;;;;;0.50;0.50;;;;;;;4.71;100.00;98741.81;5064492;28;20048;-72
2022/12/22 07:35:45;;;;;;;0.50;0.50;;;;;;;4.71;100.00;98744.38;5064844;28;20048;-73
2022/12/22 07:38:11;;;;;;;0.50;0.50;;;;;;;4.68;100.00;98742.69;5064684;28;20094;-73
2022/12/22 07:40:36;;;;;;;0.50;0.50;;;;;;;4.75;100.00;98747.75;5064975;28;20024;-72
2022/12/22 07:43:02;;;;;;;0.50;0.50;;;;;;;4.78;100.00;98755.44;5064735;28;20036;-73
2022/12/22 07:45:27;;;;;;;0.40;0.40;;;;;;;4.75;100.00;98756.31;5064749;28;20488;-72
2022/12/22 07:48:01;;;;;;;0.50;0.50;;;;;;;4.77;100.00;98748.59;5064314;28;20422;-74
2022/12/22 07:50:27;;;;;;;0.50;0.50;;;;;;;4.75;100.00;98747.75;5064762;28;20076;-74
2022/12/22 07:53:00;;;;;;;0.50;0.50;;;;;;;4.80;100.00;98756.25;5064640;28;20032;-73
2022/12/22 07:55:29;;;;;;;0.50;0.50;;;;;;;4.76;100.00;98749.47;5063247;28;20188;-73
2022/12/22 07:57:54;;;;;;;0.50;0.50;;;;;;;4.77;100.00;98751.16;5064694;28;20044;-72
2022/12/22 08:00:21;;;;;;;0.50;0.50;;;;;;;4.81;100.00;98757.97;5068592;28;20013;-74
2022/12/22 08:02:51;;;;;;;0.82;0.82;;;;;;;4.78;100.00;98747.72;5067088;28;20025;-72
2022/12/22 08:05:17;;;;;;;0.40;0.40;;;;;;;4.83;100.00;98743.38;5068570;28;20101;-73
2022/12/22 08:07:43;;;;;;;0.50;0.50;;;;;;;4.83;100.00;98740.81;5068353;28;20028;-73
2022/12/22 08:10:09;;;;;;;0.50;0.50;;;;;;;4.84;100.00;98750.22;5068261;28;20155;-73
2022/12/22 08:12:35;;;;;;;0.50;0.50;;;;;;;4.82;100.00;98742.50;5068373;28;20032;-74
2022/12/22 08:15:00;;;;;;;0.50;0.50;;;;;;;4.89;100.00;98750.19;5068204;28;20025;-73
2022/12/22 08:17:27;;;;;;;0.50;0.50;;;;;;;4.94;100.00;98751.81;5068041;28;20465;-73
2022/12/22 08:19:53;;;;;;;0.77;0.77;;;;;;;4.90;100.00;98745.03;5068007;28;20017;-74
2022/12/22 08:22:22;;;;;;;0.50;0.50;;;;;;;5.02;100.00;98738.84;5068073;28;20301;-72
2022/12/22 08:24:49;;;;;;;1.23;1.17;;;;;;;5.02;100.00;98750.84;5068110;28;20025;-74
2022/12/22 08:27:17;;;;;;;0.50;0.50;;;;;;;5.06;100.00;98750.81;5067998;28;20064;-73
2022/12/22 08:29:48;;;;;;;2.38;2.25;;;;;;;5.03;100.00;98744.88;5067800;28;20025;-74
2022/12/22 08:32:14;;;;;;;0.60;0.60;;;;;;;5.12;100.00;98749.88;5067759;28;20037;-73
2022/12/22 08:34:40;;;;;;;0.70;0.70;;;;;;;5.12;100.00;98742.16;5066260;28;20433;-75
2022/12/22 08:37:11;;;;;;;0.50;0.50;;;;;;;5.07;100.00;98738.81;5068076;28;20469;-73
2022/12/22 08:39:39;;;;;;;0.60;0.60;;;;;;;5.15;100.00;98742.13;5067805;28;20024;-73
2022/12/22 08:42:08;;;;;;;0.50;0.50;;;;;;;5.12;99.98;98743.88;5067577;28;20040;-73
2022/12/22 08:44:35;;;;;;;0.50;0.50;;;;;;;5.11;99.80;98748.19;5067725;28;20112;-72
2022/12/22 08:47:00;;;;;;;0.50;0.50;;;;;;;5.12;100.00;98733.59;5067549;28;20057;-73
2022/12/22 08:49:26;;;;;;;0.50;0.50;;;;;;;5.14;100.00;98737.00;5067389;28;20021;-74
2022/12/22 08:51:52;;;;;;;0.40;0.40;;;;;;;5.17;99.98;98739.53;5067591;28;20029;-74
2022/12/22 08:54:18;;;;;;;0.50;0.50;;;;;;;5.19;99.95;98740.38;5067498;28;20040;-73
2022/12/22 08:56:44;;;;;;;1.25;1.23;;;;;;;5.23;99.86;98741.16;5067432;28;20089;-73
2022/12/22 08:59:10;;;;;;;0.70;0.70;;;;;;;5.23;99.98;98733.44;5067328;28;20037;-73
2022/12/22 09:01:37;;;;;;;0.50;0.50;;;;;;;5.21;100.00;98733.47;5067236;28;20020;-73
2022/12/22 09:04:04;;;;;;;0.50;0.50;;;;;;;5.17;100.00;98730.09;5067114;28;20021;-72
2022/12/22 09:06:30;;;;;;;1.95;1.85;;;;;;;5.15;99.96;98734.41;5067440;28;20017;-72
2022/12/22 09:08:57;;;;;;;0.50;0.50;;;;;;;5.17;99.70;98724.97;5067234;28;20108;-72
2022/12/22 09:11:24;;;;;;;8.88;3.22;;;;;;;5.17;99.82;98727.53;5066397;28;20027;-73
2022/12/22 09:13:52;;;;;;;0.50;0.50;;;;;;;5.15;99.31;98729.28;5067196;28;20048;-72
2022/12/22 09:16:18;;;;;;;0.50;0.50;;;;;;;5.12;99.43;98726.72;5067078;28;20017;-72
2022/12/22 09:18:44;;;;;;;0.50;0.50;;;;;;;5.09;99.00;98731.94;5066854;28;20029;-73
2022/12/22 09:21:10;;;;;;;0.47;0.47;;;;;;;5.10;98.87;98732.78;5067058;28;20111;-73
2022/12/22 09:23:35;;;;;;;0.50;0.50;;;;;;;5.08;98.59;98727.63;5066937;28;20021;-73
2022/12/22 09:26:06;;;;;;;0.50;0.50;;;;;;;5.04;98.92;98736.28;5067030;28;20029;-72
2022/12/22 09:28:31;;;;;;;0.60;0.60;;;;;;;5.15;98.98;98718.97;5066863;28;20036;-72
2022/12/22 09:30:57;;;;;;;0.50;0.50;;;;;;;5.14;99.30;98721.56;5066929;28;20376;-73
2022/12/22 09:33:25;;;;;;;3.03;2.83;;;;;;;5.16;99.15;98728.38;5066297;28;20480;-72
2022/12/22 09:35:50;;;;;;;1.20;1.20;;;;;;;5.19;99.58;98718.06;5066248;28;20036;-74
2022/12/22 09:38:16;;;;;;;0.50;0.50;;;;;;;5.20;99.45;98724.91;5066668;28;20020;-72
2022/12/22 09:40:41;;;;;;;0.55;0.55;;;;;;;5.16;99.52;98710.38;5065334;28;20028;-73
2022/12/22 09:43:12;;;;;;;1.20;1.20;;;;;;;5.23;99.37;98716.28;5064864;28;20024;-73
2022/12/22 09:45:38;;;;;;;1.25;1.25;;;;;;;5.16;99.36;98709.56;5066394;28;20021;-73
2022/12/22 09:48:03;;;;;;;2.15;2.05;;;;;;;5.16;99.54;98707.81;5065366;28;20130;-72
2022/12/22 09:50:39;;;;;;;0.90;0.90;;;;;;;5.15;99.18;98716.41;5066447;28;20103;-74
2022/12/22 09:53:07;;;;;;;0.50;0.50;;;;;;;5.11;99.23;98716.47;5066442;28;20025;-72
2022/12/22 09:55:42;;;;;;;0.50;0.50;;;;;;;5.07;98.74;98711.38;5066550;28;20024;-72
2022/12/22 09:58:25;;;;;;;0.57;0.57;;;;;;;5.00;99.07;98699.44;5066300;28;20388;-72
2022/12/22 10:00:57;;;;;;;0.50;0.50;;;;;;;5.11;99.07;98711.31;5065598;28;20024;-73
2022/12/22 10:03:34;;;;;;;0.60;0.60;;;;;;;5.08;99.28;98700.19;5065770;28;20055;-72
2022/12/22 10:06:03;;;;;;;0.50;0.50;;;;;;;5.10;99.22;98699.34;5066245;28;20040;-72
2022/12/22 10:08:32;;;;;;;0.68;0.68;;;;;;;5.12;98.92;98701.00;5066097;28;20054;-73
2022/12/22 10:10:58;;;;;;;0.75;0.75;;;;;;;5.17;99.25;98700.94;5066203;28;20021;-73
2022/12/22 10:13:23;;;;;;;0.50;0.50;;;;;;;5.15;99.26;98692.38;5065843;28;20020;-72
2022/12/22 10:15:50;;;;;;;0.50;0.50;;;;;;;5.16;99.46;98689.78;5065866;28;20032;-73
2022/12/22 10:18:22;;;;;;;4.55;2.88;;;;;;;5.19;99.16;98687.19;5065828;28;20021;-73
2022/12/22 10:21:05;;;;;;;0.50;0.50;;;;;;;5.22;99.16;98678.59;5065950;28;20135;-73
2022/12/22 10:23:37;;;;;;;1.05;1.05;;;;;;;5.24;99.31;98681.13;5065991;28;20024;-72
2022/12/22 10:26:23;;;;;;;0.60;0.60;;;;;;;5.22;99.42;98678.59;5065877;28;20033;-72
2022/12/22 10:28:53;;;;;;;0.50;0.50;;;;;;;5.18;99.06;98682.06;5065589;28;20028;-74
2022/12/22 10:31:21;;;;;;;0.40;0.40;;;;;;;5.19;99.12;98673.50;5065953;28;20047;-73
2022/12/22 10:33:50;;;;;;;0.40;0.40;;;;;;;5.16;98.62;98673.53;5065593;28;20065;-73
2022/12/22 10:36:49;;;;;;;0.80;0.80;;;;;;;5.20;98.75;98670.03;5065668;28;20025;-73
2022/12/22 10:39:28;;;;;;;0.50;0.50;;;;;;;5.22;98.96;98670.88;5065275;28;20055;-74
2022/12/22 10:41:59;;;;;;;0.60;0.60;;;;;;;5.21;98.33;98662.28;5065475;28;20021;-71
2022/12/22 10:44:28;;;;;;;0.68;0.68;;;;;;;5.16;98.07;98666.63;5065698;28;20037;-72
2022/12/22 10:47:10;;;;;;;0.50;0.50;;;;;;;5.21;98.31;98672.56;5065230;28;20067;-74
2022/12/22 10:49:38;;;;;;;0.50;0.50;;;;;;;5.19;97.99;98668.34;5064970;28;20056;-74
2022/12/22 10:52:15;;;;;;;0.40;0.40;;;;;;;5.20;97.69;98670.03;5065476;28;20060;-73
2022/12/22 10:54:43;;;;;;;0.50;0.50;;;;;;;5.24;97.78;98670.84;5065464;28;20035;-74
2022/12/22 10:57:17;;;;;;;0.50;0.50;;;;;;;5.22;98.10;98658.00;5065421;28;20029;-73
2022/12/22 10:59:51;;;;;;;0.45;0.45;;;;;;;5.19;97.87;98648.59;5065436;28;20047;-73
2022/12/22 11:02:19;;;;;;;0.50;0.50;;;;;;;5.25;97.64;98665.66;5065256;28;20105;-73
2022/12/22 11:04:48;;;;;;;2.75;2.00;;;;;;;5.27;97.82;98655.34;5065049;28;20615;-73
2022/12/22 11:07:14;;;;;;;0.50;0.50;;;;;;;5.27;97.92;98658.75;5065478;28;20037;-72
2022/12/22 11:09:40;;;;;;;1.20;1.20;;;;;;;5.21;97.80;98640.84;5065233;28;20064;-73
2022/12/22 11:12:42;;;;;;;0.50;0.50;;;;;;;5.26;97.42;98658.78;5065067;28;20028;-74
2022/12/22 11:15:28;;;;;;;0.50;0.50;;;;;;;5.30;97.86;98642.44;5065175;28;20128;-73
2022/12/22 11:18:17;;;;;;;2.50;2.25;;;;;;;5.26;97.14;98638.19;5065088;28;20029;-73
2022/12/22 11:20:59;;;;;;;0.50;0.50;;;;;;;5.25;97.09;98636.50;5065196;28;20028;-73
2022/12/22 11:23:33;;;;;;;0.50;0.50;;;;;;;5.27;97.41;98647.63;5065039;28;20103;-73
2022/12/22 11:26:23;;;;;;;0.50;0.50;;;;;;;5.24;97.23;98642.53;5065245;28;20029;-73
2022/12/22 11:29:34;;;;;;;0.50;0.50;;;;;;;5.24;97.33;98640.78;5064848;28;20040;-70
2022/12/22 11:32:27;;;;;;;0.50;0.50;;;;;;;5.14;97.24;98626.38;5065054;28;20029;-70
2022/12/22 11:35:10;;;;;;;0.40;0.40;;;;;;;5.03;96.97;98623.97;5063172;28;20056;-70
2022/12/22 11:38:13;;;;;;;0.43;0.43;;;;;;;5.02;97.24;98627.41;5068963;28;20035;-69
2022/12/22 11:40:45;;;;;;;0.50;0.50;;;;;;;4.98;97.43;98629.19;5069044;28;20104;-71
2022/12/22 11:43:16;;;;;;;0.50;0.50;;;;;;;4.99;97.89;98623.16;5068874;28;20025;-71
2022/12/22 11:46:11;;;;;;;2.08;1.95;;;;;;;4.98;97.82;98626.63;5069044;28;20036;-72
2022/12/22 11:49:15;;;;;;;0.50;0.50;;;;;;;4.96;97.94;98616.34;5068297;28;20052;-71
2022/12/22 11:52:10;;;;;;;0.50;0.50;;;;;;;4.94;97.93;98610.38;5068935;28;20043;-72
2022/12/22 11:54:48;;;;;;;0.50;0.50;;;;;;;4.98;98.10;98606.03;5068761;28;20021;-72
2022/12/22 11:57:25;;;;;;;0.50;0.50;;;;;;;4.98;98.29;98610.31;5068667;28;20021;-72
2022/12/22 12:00:10;;;;;;;0.50;0.50;;;;;;;4.96;98.37;98607.78;5068848;28;20107;-71
2022/12/22 12:03:03;;;;;;;0.55;0.55;;;;;;;5.05;98.79;98599.91;5068176;28;20029;-72
2022/12/22 12:05:43;;;;;;;0.80;0.80;;;;;;;5.04;98.65;98598.22;5068502;28;20052;-72
2022/12/22 12:08:33;;;;;;;0.50;0.50;;;;;;;5.08;98.80;98589.59;5068475;28;20051;-72
2022/12/22 12:11:25;;;;;;;1.15;1.15;;;;;;;5.08;98.58;98593.88;5068541;28;20495;-72
2022/12/22 12:14:09;;;;;;;0.60;0.60;;;;;;;5.10;98.76;98591.31;5068301;28;20025;-71
2022/12/22 12:16:46;;;;;;;0.60;0.60;;;;;;;5.13;98.99;98599.81;5068451;28;20040;-72
2022/12/22 12:19:21;;;;;;;0.50;0.50;;;;;;;5.11;98.31;98587.84;5068069;28;20260;-72
2022/12/22 12:22:10;;;;;;;0.50;0.50;;;;;;;5.16;98.51;98594.59;5068446;28;20028;-74
2022/12/22 12:24:45;;;;;;;0.50;0.50;;;;;;;5.11;98.18;98583.56;5068382;28;20021;-72
2022/12/22 12:27:46;;;;;;;0.50;0.50;;;;;;;5.11;97.89;98593.00;5068053;28;20357;-72
2022/12/22 12:30:16;;;;;;;0.57;0.57;;;;;;;5.10;98.06;98581.84;5045674;28;20037;-73
2022/12/22 12:32:47;;;;;;;0.50;0.50;;;;;;;5.11;97.92;98581.00;5045741;28;20029;-72
2022/12/22 12:35:21;;;;;;;0.50;0.50;;;;;;;5.08;97.92;98581.88;5045663;28;20033;-72
2022/12/22 12:37:52;;;;;;;0.57;0.57;;;;;;;5.05;97.75;98581.06;5045502;28;20025;-69
2022/12/22 12:40:46;;;;;;;0.77;0.77;;;;;;;5.00;97.83;98570.84;5045655;28;20099;-69
2022/12/22 12:43:14;;;;;;;1.25;1.25;;;;;;;4.96;98.14;98570.06;5045615;28;20083;-70
2022/12/22 12:45:40;;;;;;;0.88;0.88;;;;;;;4.99;97.84;98573.44;5044396;28;20448;-71
2022/12/22 12:48:23;;;;;;;0.50;0.50;;;;;;;5.04;98.30;98576.78;5045161;28;20037;-72
2022/12/22 12:50:48;;;;;;;0.50;0.50;;;;;;;5.03;98.36;98569.97;5045499;28;20100;-70
2022/12/22 12:53:16;;;;;;;0.50;0.50;;;;;;;5.10;98.53;98568.16;5045196;28;20064;-70
2022/12/22 12:55:51;;;;;;;0.50;0.50;;;;;;;5.07;98.75;98569.88;5045346;28;20032;-71
2022/12/22 12:58:36;;;;;;;0.55;0.55;;;;;;;5.11;98.81;98573.28;5045223;28;20080;-70
2022/12/22 13:01:04;;;;;;;0.50;0.50;;;;;;;5.06;98.60;98563.03;5045342;28;20033;-72
2022/12/22 13:03:29;;;;;;;0.50;0.50;;;;;;;5.08;98.76;98548.44;5045079;28;20028;-72
2022/12/22 13:06:03;;;;;;;0.50;0.50;;;;;;;5.11;98.86;98551.84;5051082;28;20041;-72
2022/12/22 13:08:29;;;;;;;2.08;1.98;;;;;;;5.15;99.06;98554.34;5067567;28;20028;-72
2022/12/22 13:10:54;;;;;;;0.40;0.40;;;;;;;5.18;98.84;98549.13;5067343;28;20044;-72
2022/12/22 13:13:26;;;;;;;0.50;0.50;;;;;;;5.19;99.22;98555.13;5067069;28;20025;-72
2022/12/22 13:16:09;;;;;;;1.77;1.67;;;;;;;5.21;98.77;98554.22;5067231;28;20025;-72
2022/12/22 13:18:41;;;;;;;0.50;0.50;;;;;;;5.26;98.77;98550.72;5066899;28;20032;-72
2022/12/22 13:21:21;;;;;;;0.50;0.50;;;;;;;5.25;99.09;98549.88;5065931;28;20024;-72
2022/12/22 13:24:08;;;;;;;0.50;0.50;;;;;;;5.24;99.00;98543.03;5067023;28;20025;-72
2022/12/22 13:26:36;;;;;;;0.57;0.57;;;;;;;5.26;98.75;98536.13;5067047;28;20084;-72
2022/12/22 13:29:02;;;;;;;0.50;0.50;;;;;;;5.29;98.45;98540.38;5066762;28;20025;-71
2022/12/22 13:31:27;;;;;;;2.78;2.58;;;;;;;5.24;98.65;98539.63;5067112;28;20183;-72
2022/12/22 13:33:59;;;;;;;2.03;1.83;;;;;;;5.23;98.37;98546.47;5066557;28;20554;-72
2022/12/22 13:36:27;;;;;;;0.50;0.50;;;;;;;5.25;98.62;98543.88;5066941;28;20080;-71
2022/12/22 13:39:01;;;;;;;2.75;2.55;;;;;;;5.24;98.44;98539.63;5066728;28;20029;-72
2022/12/22 13:41:27;;;;;;;0.40;0.40;;;;;;;5.27;98.49;98542.16;5065418;28;20056;-72
2022/12/22 13:44:05;;;;;;;0.50;0.50;;;;;;;5.28;98.59;98539.53;5066578;28;20353;-74
2022/12/22 13:46:34;;;;;;;0.50;0.50;;;;;;;5.26;98.73;98540.44;5066446;28;20484;-70
2022/12/22 13:49:03;;;;;;;0.70;0.70;;;;;;;5.26;98.64;98540.44;5066324;28;20117;-71
2022/12/22 13:51:34;;;;;;;0.40;0.40;;;;;;;5.27;98.16;98549.88;5066398;28;20025;-72
2022/12/22 13:54:17;;;;;;;0.50;0.50;;;;;;;5.28;98.21;98554.97;5066361;28;20044;-73
2022/12/22 13:56:51;;;;;;;0.50;0.50;;;;;;;5.28;98.20;98538.69;5066134;28;20059;-73
2022/12/22 13:59:34;;;;;;;0.82;0.82;;;;;;;5.29;98.34;98536.09;5064924;28;20388;-72
2022/12/22 14:02:14;;;;;;;0.40;0.40;;;;;;;5.35;98.69;98545.44;5066260;28;20051;-72
2022/12/22 14:04:42;;;;;;;0.50;0.50;;;;;;;5.35;98.28;98542.00;5066023;28;20035;-73
2022/12/22 14:07:17;;;;;;;0.50;0.50;;;;;;;5.32;98.01;98545.47;5066304;28;20032;-73
2022/12/22 14:09:47;;;;;;;0.50;0.50;;;;;;;5.35;97.99;98539.44;5066072;28;20043;-72
2022/12/22 14:12:17;;;;;;;1.25;1.25;;;;;;;5.34;98.20;98538.56;5066286;28;20046;-72
2022/12/22 14:14:48;;;;;;;0.50;0.50;;;;;;;5.36;97.99;98533.41;5066094;28;20029;-73
2022/12/22 14:17:20;;;;;;;0.50;0.50;;;;;;;5.34;98.03;98525.72;5066122;28;20035;-72
2022/12/22 14:19:50;;;;;;;0.50;0.50;;;;;;;5.34;97.75;98515.41;5064466;28;20017;-71
2022/12/22 14:22:20;;;;;;;0.50;0.50;;;;;;;5.38;98.20;98531.66;5065892;28;20032;-72
2022/12/22 14:24:56;;;;;;;0.50;0.50;;;;;;;5.36;98.07;98531.69;5065779;28;20017;-73
2022/12/22 14:27:36;;;;;;;0.50;0.50;;;;;;;5.31;98.23;98521.47;5065894;28;20024;-72
2022/12/22 14:30:24;;;;;;;1.05;1.00;;;;;;;5.32;97.94;98524.88;5065811;28;20055;-73
2022/12/22 14:32:53;;;;;;;0.50;0.50;;;;;;;5.32;97.89;98523.16;5065331;28;20039;-72
2022/12/22 14:35:19;;;;;;;0.50;0.50;;;;;;;5.28;97.66;98524.09;5065766;28;20093;-72
2022/12/22 14:37:49;;;;;;;0.50;0.50;;;;;;;5.29;97.64;98519.78;5065740;28;20028;-73
2022/12/22 14:40:34;;;;;;;1.23;1.20;;;;;;;5.30;97.83;98508.66;5065682;28;20027;-72
2022/12/22 14:43:03;;;;;;;0.50;0.50;;;;;;;5.27;97.78;98514.66;5065368;28;20021;-72
2022/12/22 14:45:29;;;;;;;0.40;0.40;;;;;;;5.26;98.16;98512.13;5065717;28;20068;-71
2022/12/22 14:47:55;;;;;;;0.50;0.50;;;;;;;5.26;97.82;98510.41;5065120;28;20048;-72
2022/12/22 14:50:28;;;;;;;0.60;0.60;;;;;;;5.26;97.76;98512.13;5065137;28;20461;-73
2022/12/22 14:52:58;;;;;;;0.50;0.50;;;;;;;5.25;97.97;98495.00;5064057;28;20025;-71
2022/12/22 14:55:26;;;;;;;0.50;0.50;;;;;;;5.23;97.71;98489.88;5065711;28;20025;-72
2022/12/22 14:58:13;;;;;;;0.50;0.50;;;;;;;5.23;97.70;98499.31;5065047;28;20029;-72
2022/12/22 15:01:06;;;;;;;0.68;0.68;;;;;;;5.21;97.83;98487.34;5063932;28;20021;-71
2022/12/22 15:03:41;;;;;;;0.50;0.50;;;;;;;5.16;97.59;98494.28;5064899;28;20025;-71
2022/12/22 15:06:44;;;;;;;0.50;0.50;;;;;;;5.21;97.22;98489.06;5065081;28;20021;-73
2022/12/22 15:09:12;;;;;;;3.08;2.88;;;;;;;5.21;97.34;98492.47;5061024;28;20047;-73
2022/12/22 15:11:41;;;;;;;0.80;0.80;;;;;;;5.20;97.58;98484.78;5065205;28;20079;-72
2022/12/22 15:14:14;;;;;;;0.57;0.57;;;;;;;5.20;97.74;98489.94;5063685;28;20040;-71
2022/12/22 15:16:40;;;;;;;0.50;0.50;;;;;;;5.22;97.27;98495.91;5065085;28;20045;-72
2022/12/22 15:19:06;;;;;;;0.50;0.50;;;;;;;5.21;97.31;98489.91;5063543;28;20028;-72
2022/12/22 15:21:33;;;;;;;0.50;0.50;;;;;;;5.26;97.25;98499.25;5065077;28;20021;-72
2022/12/22 15:23:59;;;;;;;0.57;0.57;;;;;;;5.24;97.30;98471.00;5065072;28;20082;-71
2022/12/22 15:26:25;;;;;;;0.50;0.50;;;;;;;5.22;97.35;98470.19;5063681;28;20028;-72
2022/12/22 15:28:50;;;;;;;0.50;0.50;;;;;;;5.23;97.19;98489.03;5064922;28;20021;-72
2022/12/22 15:31:17;;;;;;;0.50;0.50;;;;;;;5.15;97.03;98476.28;5065179;28;20401;-71